Terminal Aerodrome Forecast
Issued by NWS Central Illinois

Home | Current Version | Previous Version | Text Only | Print | Product List | Glossary On
Versions: 1 2 3 4 5 6 7 8 9 10 11 12 13 14 15 16 17
000
FTUS43 KILX 242338
TAFSPI
TAF
KSPI 242338Z 2500/2524 22005KT P6SM SCT040 BKN250
     FM250500 VRB03KT P6SM VCTS SCT040CB OVC150
     FM251000 20004KT 4SM BR SCT015 BKN100
     FM251600 27006KT P6SM BKN050=

USA.gov is the U.S. government's official web portal to all federal, state and local government web resources and services.